CheckWX is a tool to help pilots better visualize weather data.  It is not intended as a substitute for an official pre-flight weather briefing.

02:47:52 UTC

KEWN TAF
Coastal Carolina Regional Airport
New Bern, North Carolina, USA
KEWN 152350Z 1600/1624 00000KT P6SM FEW250 FM161800 18006KT P6SM SCT050 SCT250

Jul-16@
00:00 UTC

Jul-16 @ 00:00 UTC

Jul-16@
18:00 UTC

Jul-16 @ 18:00 UTC

KEWN 152350Z 1600/1624 00000KT P6SM FEW250
Cloud Levels
  • Few at 25,000' AGL

Jul-16@
18:00 UTC

Jul-16 @ 18:00 UTC

Jul-17@
00:00 UTC

Jul-17 @ 00:00 UTC

FM161800 18006KT P6SM SCT050 SCT250

From

From Standard forecast or significant change

Wind
  • 180° at 6 KTS
Cloud Levels
  • Scattered at 5,000' AGL
  • Scattered at 25,000' AGL